createdAt,value
2023-01-19T00:00:06.264Z,1.63
2023-01-19T00:02:32.934Z,1.61
2023-01-19T00:04:59.490Z,1.64
2023-01-19T00:07:25.963Z,1.63
2023-01-19T00:09:52.431Z,1.63
2023-01-19T00:12:18.920Z,1.63
2023-01-19T00:14:45.409Z,1.63
2023-01-19T00:17:11.972Z,1.62
2023-01-19T00:19:38.630Z,1.65
2023-01-19T00:22:05.972Z,1.63
2023-01-19T00:24:32.935Z,1.61
2023-01-19T00:27:00.178Z,1.63
2023-01-19T00:29:27.665Z,1.62
2023-01-19T00:31:54.227Z,1.59
2023-01-19T00:34:20.717Z,1.67
2023-01-19T00:36:47.266Z,1.59
2023-01-19T00:39:13.828Z,1.55
2023-01-19T00:41:58.935Z,1.53
2023-01-19T00:44:25.443Z,1.51
2023-01-19T00:46:51.944Z,1.49
2023-01-19T00:49:18.654Z,1.47
2023-01-19T00:51:45.207Z,1.45
2023-01-19T00:54:11.739Z,1.44
2023-01-19T00:56:38.372Z,1.42
2023-01-19T00:59:04.987Z,1.46
2023-01-19T01:01:45.361Z,1.46
2023-01-19T01:04:13.586Z,1.41
2023-01-19T01:06:40.450Z,1.44
2023-01-19T01:09:11.800Z,1.45
2023-01-19T01:11:40.133Z,1.51
2023-01-19T01:14:06.900Z,1.48
2023-01-19T01:16:33.594Z,1.50
2023-01-19T01:19:00.308Z,1.50
2023-01-19T01:21:27.077Z,1.51
2023-01-19T01:23:53.581Z,1.51
2023-01-19T01:26:20.108Z,1.56
2023-01-19T01:28:46.693Z,1.55
2023-01-19T01:31:13.281Z,1.56
2023-01-19T01:33:41.799Z,1.55
2023-01-19T01:36:10.164Z,1.54
2023-01-19T01:38:36.716Z,1.59
2023-01-19T01:41:03.557Z,1.58
2023-01-19T01:43:53.342Z,1.59
2023-01-19T01:46:20.333Z,1.56
2023-01-19T01:48:54.715Z,1.52
2023-01-19T01:51:28.335Z,1.48
2023-01-19T01:54:02.751Z,1.40
2023-01-19T01:56:38.913Z,1.50
2023-01-19T01:59:11.271Z,1.34
2023-01-19T02:01:56.744Z,1.35
2023-01-19T02:04:23.944Z,1.43
2023-01-19T02:07:09.291Z,1.28
2023-01-19T02:09:55.525Z,1.23
2023-01-19T02:12:41.298Z,1.17
2023-01-19T02:15:16.022Z,1.12
2023-01-19T02:17:43.171Z,1.07
2023-01-19T02:20:10.596Z,1.02
2023-01-19T02:22:46.359Z,1.11
2023-01-19T02:25:13.250Z,0.98
2023-01-19T02:27:39.865Z,0.93
2023-01-19T02:30:07.974Z,0.88
2023-01-19T02:32:34.474Z,0.94
2023-01-19T02:35:01.314Z,0.93
2023-01-19T02:37:32.565Z,0.78
2023-01-19T02:40:02.173Z,0.87
2023-01-19T02:42:45.474Z,0.76
2023-01-19T02:45:15.422Z,0.68
2023-01-19T02:47:51.058Z,0.77
2023-01-19T02:50:38.246Z,0.76
2023-01-19T02:53:26.767Z,0.77
2023-01-19T02:55:59.282Z,0.62
2023-01-19T02:58:49.287Z,0.74
2023-01-19T03:01:52.983Z,0.65
2023-01-19T03:04:33.450Z,0.62
2023-01-19T03:07:11.083Z,0.61
2023-01-19T03:09:49.529Z,0.60
2023-01-19T03:12:48.331Z,0.63
2023-01-19T03:15:23.546Z,0.71
2023-01-19T03:17:52.904Z,0.65
2023-01-19T03:20:24.698Z,0.70
2023-01-19T03:22:59.010Z,0.71
2023-01-19T03:25:26.171Z,0.60
2023-01-19T03:27:57.357Z,0.56
2023-01-19T03:30:32.130Z,0.64
2023-01-19T03:33:07.877Z,0.55
2023-01-19T03:35:38.760Z,0.52
2023-01-19T03:38:10.312Z,0.60
2023-01-19T03:40:37.579Z,0.50
2023-01-19T03:43:05.214Z,0.47
2023-01-19T03:45:35.549Z,0.46
2023-01-19T03:48:02.753Z,0.46
2023-01-19T03:50:30.562Z,0.51
2023-01-19T03:53:16.747Z,0.58
2023-01-19T03:55:47.074Z,0.59
2023-01-19T03:58:14.108Z,0.56
2023-01-19T04:00:41.447Z,0.46
2023-01-19T04:03:14.644Z,0.45
2023-01-19T04:05:41.624Z,0.42
2023-01-19T04:08:08.249Z,0.51
2023-01-19T04:10:34.789Z,0.53
2023-01-19T04:13:03.011Z,0.39
2023-01-19T04:15:30.613Z,0.47
2023-01-19T04:17:58.383Z,0.39
2023-01-19T04:20:27.072Z,0.39
2023-01-19T04:22:54.963Z,0.47
2023-01-19T04:25:21.618Z,0.40
2023-01-19T04:27:52.732Z,0.34
2023-01-19T04:30:19.568Z,0.44
2023-01-19T04:32:46.292Z,0.44
2023-01-19T04:35:12.807Z,0.45
2023-01-19T04:37:39.984Z,0.34
2023-01-19T04:40:07.259Z,0.33
2023-01-19T04:42:33.745Z,0.41
2023-01-19T04:45:00.213Z,0.33
2023-01-19T04:47:26.748Z,0.32
2023-01-19T04:49:53.218Z,0.40
2023-01-19T04:52:20.252Z,0.36
2023-01-19T04:54:46.737Z,0.36
2023-01-19T04:57:13.225Z,0.38
2023-01-19T04:59:40.120Z,0.44
2023-01-19T05:02:06.699Z,0.40
2023-01-19T05:04:33.668Z,0.41
2023-01-19T05:07:00.122Z,0.41
2023-01-19T05:09:27.294Z,0.41
2023-01-19T05:11:53.955Z,0.48
2023-01-19T05:14:20.703Z,0.43
2023-01-19T05:16:47.206Z,0.42
2023-01-19T05:19:13.750Z,0.41
2023-01-19T05:21:40.275Z,0.49
2023-01-19T05:24:07.278Z,0.40
2023-01-19T05:26:33.758Z,0.40
2023-01-19T05:29:00.216Z,0.43
2023-01-19T05:31:26.775Z,0.42
2023-01-19T05:33:53.388Z,0.48
2023-01-19T05:36:19.932Z,0.44
2023-01-19T05:38:46.438Z,0.46
2023-01-19T05:41:13.055Z,0.45
2023-01-19T05:43:39.524Z,0.54
2023-01-19T05:46:06.707Z,0.56
2023-01-19T05:48:33.216Z,0.55
2023-01-19T05:51:01.285Z,0.50
2023-01-19T05:53:28.618Z,0.47
2023-01-19T05:56:00.396Z,0.52
2023-01-19T05:58:26.935Z,0.52
2023-01-19T06:00:53.437Z,0.52
2023-01-19T06:03:20.152Z,0.59
2023-01-19T06:05:46.841Z,0.53
2023-01-19T06:08:13.345Z,0.61
2023-01-19T06:10:40.305Z,0.56
2023-01-19T06:13:06.980Z,0.63
2023-01-19T06:15:33.499Z,0.65
2023-01-19T06:18:01.027Z,0.59
2023-01-19T06:20:27.542Z,0.58
2023-01-19T06:22:57.007Z,0.59
2023-01-19T06:25:25.454Z,0.57
2023-01-19T06:27:52.072Z,0.58
2023-01-19T06:30:18.938Z,0.57
2023-01-19T06:32:45.433Z,0.59
2023-01-19T06:35:12.236Z,0.60
2023-01-19T06:37:39.172Z,0.60
2023-01-19T06:40:06.865Z,0.67
2023-01-19T06:42:33.471Z,0.67
2023-01-19T06:45:00.105Z,0.65
2023-01-19T06:47:26.599Z,0.63
2023-01-19T06:49:53.259Z,0.69
2023-01-19T06:52:20.582Z,0.66
2023-01-19T06:54:47.554Z,0.65
2023-01-19T06:57:14.249Z,0.73
2023-01-19T06:59:41.083Z,0.75
2023-01-19T07:02:26.471Z,0.68
2023-01-19T07:04:54.701Z,0.71
2023-01-19T07:07:21.255Z,0.72
2023-01-19T07:09:48.025Z,0.71
2023-01-19T07:12:14.660Z,0.78
2023-01-19T07:14:41.163Z,0.75
2023-01-19T07:17:07.800Z,0.81
2023-01-19T07:19:35.322Z,0.74
2023-01-19T07:22:03.087Z,0.76
2023-01-19T07:24:30.624Z,0.77
2023-01-19T07:26:57.134Z,0.78
2023-01-19T07:29:24.507Z,0.78
2023-01-19T07:31:51.138Z,0.87
2023-01-19T07:34:17.733Z,0.83
2023-01-19T07:36:44.270Z,0.82
2023-01-19T07:39:10.786Z,0.86
2023-01-19T07:41:37.365Z,0.87
2023-01-19T07:44:06.625Z,0.93
2023-01-19T07:46:33.181Z,0.92
2023-01-19T07:48:59.973Z,0.93
2023-01-19T07:51:27.753Z,0.95
2023-01-19T07:53:54.218Z,0.90
2023-01-19T07:56:21.994Z,0.95
2023-01-19T07:58:50.396Z,0.96
2023-01-19T08:01:17.001Z,0.89
2023-01-19T08:03:43.741Z,0.94
2023-01-19T08:06:27.030Z,0.97
2023-01-19T08:08:53.520Z,0.88
2023-01-19T08:11:20.083Z,0.86
2023-01-19T08:13:46.623Z,0.94
2023-01-19T08:16:13.104Z,0.86
2023-01-19T08:18:39.656Z,0.85
2023-01-19T08:21:06.332Z,0.93
2023-01-19T08:23:32.873Z,0.86
2023-01-19T08:25:59.355Z,0.84
2023-01-19T08:28:26.097Z,0.85
2023-01-19T08:30:55.614Z,0.86
2023-01-19T08:33:23.769Z,0.84
2023-01-19T08:35:53.042Z,0.91
2023-01-19T08:38:19.844Z,0.85
2023-01-19T08:40:46.448Z,0.91
2023-01-19T08:43:15.476Z,0.95
2023-01-19T08:45:49.127Z,0.91
2023-01-19T08:48:17.567Z,0.89
2023-01-19T08:50:47.542Z,0.89
2023-01-19T08:53:14.392Z,0.91
2023-01-19T08:55:40.969Z,0.91
2023-01-19T08:58:08.723Z,0.91
2023-01-19T09:00:39.550Z,0.99
2023-01-19T09:03:08.101Z,0.94
2023-01-19T09:05:38.601Z,0.92
2023-01-19T09:08:08.233Z,0.92
2023-01-19T09:10:36.147Z,0.91
2023-01-19T09:13:08.128Z,0.91
2023-01-19T09:15:37.410Z,0.90
2023-01-19T09:18:06.790Z,0.93
2023-01-19T09:20:36.001Z,0.94
2023-01-19T09:23:02.839Z,0.93
2023-01-19T09:25:29.477Z,0.91
2023-01-19T09:27:56.254Z,0.90
2023-01-19T09:30:22.836Z,1.00
2023-01-19T09:32:49.382Z,0.93
2023-01-19T09:35:16.426Z,0.91
2023-01-19T09:37:47.087Z,0.91
2023-01-19T09:40:16.580Z,1.02
2023-01-19T09:42:47.310Z,1.03
2023-01-19T09:45:22.749Z,1.05
2023-01-19T09:47:50.775Z,0.94
2023-01-19T09:50:25.615Z,0.87
2023-01-19T09:53:02.574Z,1.03
2023-01-19T09:55:30.419Z,0.95
2023-01-19T09:57:56.946Z,0.95
2023-01-19T10:00:24.758Z,0.99
2023-01-19T10:02:52.960Z,1.01
2023-01-19T10:05:26.926Z,1.04
2023-01-19T10:08:17.175Z,1.07
2023-01-19T10:10:48.418Z,1.10
2023-01-19T10:13:46.978Z,1.17
2023-01-19T10:16:35.466Z,1.19
2023-01-19T10:19:17.113Z,1.24
2023-01-19T10:21:46.428Z,1.31
2023-01-19T10:24:30.086Z,1.29
2023-01-19T10:26:56.995Z,1.29
2023-01-19T10:29:36.581Z,1.31
2023-01-19T10:32:13.941Z,1.38
2023-01-19T10:34:41.616Z,1.37
2023-01-19T10:37:17.382Z,1.39
2023-01-19T10:39:53.717Z,1.43
2023-01-19T10:42:20.407Z,1.44
2023-01-19T10:44:47.053Z,1.44
2023-01-19T10:47:19.046Z,1.52
2023-01-19T10:49:46.341Z,1.57
2023-01-19T10:52:31.149Z,1.56
2023-01-19T10:55:00.043Z,1.60
2023-01-19T10:57:31.636Z,1.57
2023-01-19T10:59:58.604Z,1.61
2023-01-19T11:02:27.719Z,1.62
2023-01-19T11:04:58.690Z,1.66
2023-01-19T11:07:31.133Z,1.70
2023-01-19T11:10:21.956Z,1.75
2023-01-19T11:13:01.395Z,1.77
2023-01-19T11:15:35.600Z,1.80
2023-01-19T11:18:05.330Z,1.83
2023-01-19T11:20:52.649Z,1.88
2023-01-19T11:23:28.573Z,1.91
2023-01-19T11:25:58.726Z,1.97
2023-01-19T11:28:34.143Z,1.98
2023-01-19T11:31:03.174Z,1.96
2023-01-19T11:33:34.278Z,1.98
2023-01-19T11:36:21.260Z,2.06
2023-01-19T11:38:55.391Z,2.09
2023-01-19T11:41:31.740Z,2.08
2023-01-19T11:44:08.670Z,2.12
2023-01-19T11:46:39.420Z,2.15
2023-01-19T11:49:12.765Z,2.21
2023-01-19T11:52:05.751Z,2.25
2023-01-19T11:54:39.018Z,2.25
2023-01-19T11:57:12.987Z,2.28
2023-01-19T11:59:39.543Z,2.34
2023-01-19T12:02:20.481Z,2.35
2023-01-19T12:04:49.943Z,2.35
2023-01-19T12:07:22.171Z,2.42
2023-01-19T12:09:58.662Z,2.44
2023-01-19T12:12:33.333Z,2.52
2023-01-19T12:15:05.515Z,2.54
2023-01-19T12:17:36.609Z,2.57
2023-01-19T12:20:21.275Z,2.66
2023-01-19T12:22:59.865Z,2.68
2023-01-19T12:25:45.032Z,2.71
2023-01-19T12:28:15.221Z,2.74
2023-01-19T12:30:41.796Z,2.76
2023-01-19T12:33:28.971Z,2.81
2023-01-19T12:36:01.067Z,2.81
2023-01-19T12:38:49.221Z,2.85
2023-01-19T12:41:26.230Z,2.85
2023-01-19T12:44:11.157Z,2.88
2023-01-19T12:46:45.949Z,2.90
2023-01-19T12:49:44.000Z,2.96
2023-01-19T12:52:47.731Z,2.96
2023-01-19T12:55:14.167Z,3.03
2023-01-19T12:57:56.556Z,3.05
2023-01-19T13:00:23.048Z,3.04
2023-01-19T13:02:51.239Z,3.09
2023-01-19T13:05:51.216Z,3.13
2023-01-19T13:08:20.151Z,3.10
2023-01-19T13:11:14.318Z,3.14
2023-01-19T13:13:49.876Z,3.11
2023-01-19T13:16:19.406Z,3.11
2023-01-19T13:18:51.527Z,3.09
2023-01-19T13:21:31.294Z,3.19
2023-01-19T13:24:00.150Z,3.14
2023-01-19T13:26:39.001Z,3.21
2023-01-19T13:29:15.582Z,3.22
2023-01-19T13:31:44.708Z,3.23
2023-01-19T13:34:14.497Z,3.22
2023-01-19T13:36:45.182Z,3.28
2023-01-19T13:39:26.532Z,3.28
2023-01-19T13:41:56.068Z,3.34
2023-01-19T13:44:29.216Z,3.32
2023-01-19T13:46:57.468Z,3.29
2023-01-19T13:49:31.272Z,3.30
2023-01-19T13:52:14.916Z,3.24
2023-01-19T13:54:53.348Z,3.27
2023-01-19T13:57:53.559Z,3.29
2023-01-19T14:00:20.314Z,3.19
2023-01-19T14:03:04.770Z,3.18
2023-01-19T14:05:37.533Z,3.16
2023-01-19T14:08:05.625Z,3.18
2023-01-19T14:10:33.673Z,3.21
2023-01-19T14:13:05.426Z,3.16
2023-01-19T14:15:34.330Z,3.16
2023-01-19T14:18:15.933Z,3.25
2023-01-19T14:20:56.623Z,3.26
2023-01-19T14:23:45.276Z,3.30
2023-01-19T14:26:49.112Z,3.33
2023-01-19T14:29:21.516Z,3.27
2023-01-19T14:32:37.455Z,3.29
2023-01-19T14:35:04.541Z,3.26
2023-01-19T14:37:34.742Z,3.27
2023-01-19T14:40:11.133Z,3.29
2023-01-19T14:43:00.341Z,3.32
2023-01-19T14:45:37.296Z,3.30
2023-01-19T14:48:22.617Z,3.34
2023-01-19T14:51:02.888Z,3.30
2023-01-19T14:53:36.561Z,3.34
2023-01-19T14:56:04.974Z,3.34
2023-01-19T14:58:33.753Z,3.42
2023-01-19T15:01:00.707Z,3.38
2023-01-19T15:03:43.710Z,3.43
2023-01-19T15:06:17.297Z,3.44
2023-01-19T15:08:44.807Z,3.33
2023-01-19T15:11:26.794Z,3.39
2023-01-19T15:13:54.247Z,3.31
2023-01-19T15:16:21.920Z,3.19
2023-01-19T15:18:48.416Z,3.12
2023-01-19T15:21:19.531Z,3.16
2023-01-19T15:23:50.438Z,3.23
2023-01-19T15:26:18.885Z,3.03
2023-01-19T15:28:45.956Z,3.01
2023-01-19T15:31:16.005Z,3.01
2023-01-19T15:33:42.786Z,2.97
2023-01-19T15:36:18.230Z,2.90
2023-01-19T15:38:45.504Z,2.88
2023-01-19T15:41:25.674Z,2.85
2023-01-19T15:43:52.700Z,2.86
2023-01-19T15:46:20.668Z,2.84
2023-01-19T15:48:47.888Z,2.76
2023-01-19T15:51:16.072Z,2.82
2023-01-19T15:53:43.427Z,2.71
2023-01-19T15:56:17.902Z,2.80
2023-01-19T15:58:44.788Z,2.76
2023-01-19T16:01:16.127Z,2.67
2023-01-19T16:03:43.354Z,2.64
2023-01-19T16:06:10.731Z,2.59
2023-01-19T16:08:37.584Z,2.60
2023-01-19T16:11:09.498Z,2.56
2023-01-19T16:13:36.479Z,2.72
2023-01-19T16:16:04.937Z,2.55
2023-01-19T16:18:31.655Z,2.45
2023-01-19T16:20:58.236Z,2.53
2023-01-19T16:23:24.832Z,2.44
2023-01-19T16:26:01.135Z,2.49
2023-01-19T16:28:27.705Z,2.55
2023-01-19T16:30:54.525Z,2.45
2023-01-19T16:33:21.019Z,2.44
2023-01-19T16:35:47.906Z,2.45
2023-01-19T16:38:14.582Z,2.39
2023-01-19T16:40:44.077Z,2.45
2023-01-19T16:43:10.633Z,2.37
2023-01-19T16:45:58.109Z,2.40
2023-01-19T16:48:25.811Z,2.35
2023-01-19T16:51:00.682Z,2.39
2023-01-19T16:53:27.963Z,2.33
2023-01-19T16:55:54.590Z,2.25
2023-01-19T16:58:21.224Z,2.26
2023-01-19T17:00:47.785Z,2.20
2023-01-19T17:03:14.420Z,2.24
2023-01-19T17:05:40.959Z,2.19
2023-01-19T17:08:07.490Z,2.10
2023-01-19T17:10:36.639Z,2.18
2023-01-19T17:13:03.955Z,2.12
2023-01-19T17:15:30.899Z,2.14
2023-01-19T17:17:57.372Z,2.06
2023-01-19T17:20:23.846Z,2.05
2023-01-19T17:22:50.361Z,2.06
2023-01-19T17:25:16.984Z,2.03
2023-01-19T17:27:43.509Z,2.08
2023-01-19T17:30:10.785Z,2.03
2023-01-19T17:32:37.529Z,2.04
2023-01-19T17:35:04.248Z,2.03
2023-01-19T17:37:30.734Z,2.00
2023-01-19T17:39:57.218Z,1.99
2023-01-19T17:42:24.292Z,1.82
2023-01-19T17:44:50.834Z,1.97
2023-01-19T17:47:17.450Z,1.91
2023-01-19T17:49:43.969Z,1.92
2023-01-19T17:52:10.491Z,1.81
2023-01-19T17:54:37.018Z,1.81
2023-01-19T17:57:03.646Z,1.85
2023-01-19T17:59:30.190Z,1.84
2023-01-19T18:01:56.724Z,1.80
2023-01-19T18:04:23.354Z,1.78
2023-01-19T18:06:50.125Z,1.79
2023-01-19T18:09:16.629Z,1.84
2023-01-19T18:11:43.192Z,1.84
2023-01-19T18:14:09.686Z,1.86
2023-01-19T18:16:36.605Z,1.78
2023-01-19T18:19:03.604Z,1.65
2023-01-19T18:21:30.367Z,1.67
2023-01-19T18:24:02.333Z,1.74
2023-01-19T18:26:29.728Z,1.62
2023-01-19T18:28:57.085Z,1.64
2023-01-19T18:31:24.068Z,1.69
2023-01-19T18:33:50.692Z,1.63
2023-01-19T18:36:17.651Z,1.63
2023-01-19T18:38:44.941Z,1.62
2023-01-19T18:41:14.480Z,1.57
2023-01-19T18:43:41.587Z,1.56
2023-01-19T18:46:08.692Z,1.55
2023-01-19T18:48:36.408Z,1.53
2023-01-19T18:51:20.712Z,1.61
2023-01-19T18:53:47.286Z,1.53
2023-01-19T18:56:15.619Z,1.52
2023-01-19T18:58:42.884Z,1.49
2023-01-19T19:01:24.653Z,1.50
2023-01-19T19:03:52.059Z,1.48
2023-01-19T19:06:20.659Z,1.67
2023-01-19T19:08:51.491Z,1.50
2023-01-19T19:11:19.489Z,1.68
2023-01-19T19:13:46.193Z,1.48
2023-01-19T19:16:13.369Z,1.44
2023-01-19T19:18:39.903Z,1.43
2023-01-19T19:21:11.619Z,1.45
2023-01-19T19:23:38.634Z,1.31
2023-01-19T19:26:07.551Z,1.35
2023-01-19T19:28:36.685Z,1.39
2023-01-19T19:31:12.453Z,1.34
2023-01-19T19:33:39.235Z,1.38
2023-01-19T19:36:06.738Z,1.26
2023-01-19T19:38:34.729Z,1.25
2023-01-19T19:41:08.313Z,1.26
2023-01-19T19:43:35.426Z,1.30
2023-01-19T19:46:05.368Z,1.15
2023-01-19T19:48:32.634Z,1.14
2023-01-19T19:51:18.207Z,1.20
2023-01-19T19:53:45.890Z,1.37
2023-01-19T19:56:13.135Z,1.17
2023-01-19T19:58:41.709Z,1.37
2023-01-19T20:01:14.187Z,1.24
2023-01-19T20:03:41.347Z,1.17
2023-01-19T20:06:13.799Z,1.19
2023-01-19T20:08:40.518Z,1.13
2023-01-19T20:11:12.680Z,1.13
2023-01-19T20:13:40.797Z,1.13
2023-01-19T20:16:12.479Z,1.15
2023-01-19T20:18:43.672Z,1.16
2023-01-19T20:21:18.635Z,1.28
2023-01-19T20:23:46.699Z,1.12
2023-01-19T20:26:15.477Z,1.13
2023-01-19T20:28:42.328Z,1.03
2023-01-19T20:31:22.444Z,1.13
2023-01-19T20:33:50.568Z,1.08
2023-01-19T20:36:17.514Z,1.05
2023-01-19T20:38:44.592Z,1.05
2023-01-19T20:41:12.635Z,1.06
2023-01-19T20:43:39.634Z,1.02
2023-01-19T20:46:06.721Z,1.08
2023-01-19T20:48:33.289Z,1.05
2023-01-19T20:51:01.888Z,1.01
2023-01-19T20:53:29.412Z,0.93
2023-01-19T20:55:56.070Z,1.12
2023-01-19T20:58:23.474Z,1.00
2023-01-19T21:00:50.727Z,0.93
2023-01-19T21:03:17.353Z,0.89
2023-01-19T21:05:46.830Z,0.89
2023-01-19T21:08:14.717Z,0.82
2023-01-19T21:10:42.274Z,0.80
2023-01-19T21:13:09.069Z,0.74
2023-01-19T21:15:35.567Z,0.80
2023-01-19T21:18:02.169Z,0.94
2023-01-19T21:20:31.603Z,0.94
2023-01-19T21:22:58.944Z,1.05
2023-01-19T21:25:25.468Z,1.09
2023-01-19T21:27:51.988Z,0.90
2023-01-19T21:30:18.746Z,0.99
2023-01-19T21:32:45.255Z,1.02
2023-01-19T21:35:12.221Z,1.00
2023-01-19T21:37:38.904Z,0.97
2023-01-19T21:40:06.288Z,0.99
2023-01-19T21:42:32.854Z,1.03
2023-01-19T21:44:59.345Z,1.16
2023-01-19T21:47:25.863Z,0.99
2023-01-19T21:49:52.427Z,1.01
2023-01-19T21:52:18.951Z,0.99
2023-01-19T21:54:45.427Z,1.01
2023-01-19T21:57:15.071Z,1.14
2023-01-19T21:59:41.647Z,1.01
2023-01-19T22:02:11.559Z,0.97
2023-01-19T22:04:39.143Z,1.00
2023-01-19T22:07:06.471Z,1.11
2023-01-19T22:09:36.415Z,0.87
2023-01-19T22:12:03.128Z,0.98
2023-01-19T22:14:29.688Z,0.94
2023-01-19T22:16:56.247Z,0.94
2023-01-19T22:19:22.780Z,0.99
2023-01-19T22:21:49.362Z,1.11
2023-01-19T22:24:15.924Z,1.03
2023-01-19T22:26:42.671Z,1.01
2023-01-19T22:29:11.221Z,1.01
2023-01-19T22:31:39.065Z,1.13
2023-01-19T22:34:10.351Z,1.03
2023-01-19T22:36:38.066Z,1.14
2023-01-19T22:39:10.131Z,1.00
2023-01-19T22:41:43.842Z,0.99
2023-01-19T22:44:20.884Z,0.99
2023-01-19T22:46:48.579Z,0.98
2023-01-19T22:49:16.976Z,0.97
2023-01-19T22:51:44.148Z,0.88
2023-01-19T22:54:11.004Z,0.91
2023-01-19T22:56:39.438Z,0.94
2023-01-19T22:59:06.673Z,1.05
2023-01-19T23:01:40.082Z,0.97
2023-01-19T23:04:08.476Z,0.90
2023-01-19T23:06:36.616Z,0.87
2023-01-19T23:09:10.063Z,0.86
2023-01-19T23:11:39.911Z,0.86
2023-01-19T23:14:09.415Z,0.87
2023-01-19T23:16:36.280Z,0.81
2023-01-19T23:19:03.533Z,0.84
2023-01-19T23:21:31.469Z,0.78
2023-01-19T23:24:03.008Z,0.81
2023-01-19T23:26:30.942Z,0.95
2023-01-19T23:29:01.850Z,0.95
2023-01-19T23:31:34.451Z,0.87
2023-01-19T23:34:03.735Z,0.99
2023-01-19T23:36:32.427Z,0.81
2023-01-19T23:39:04.369Z,0.83
2023-01-19T23:41:32.358Z,0.94
2023-01-19T23:43:58.843Z,0.83
2023-01-19T23:46:25.384Z,0.81
2023-01-19T23:48:51.963Z,0.80
2023-01-19T23:51:21.634Z,0.72
2023-01-19T23:53:48.625Z,0.67
2023-01-19T23:56:18.655Z,0.71
2023-01-19T23:58:46.746Z,0.75
